Time;durP1;ratioP1;P1;durP2;ratioP2;P2;SDS_P1;SDS_P2;PMS_P1;PMS_P2;Temp;Humidity;BMP_temperature;BMP_pressure;BME280_temperature;BME280_humidity;BME280_pressure;Samples;Min_cycle;Max_cycle;Signal;HPM_P1;HPM_P2
2022/07/21 00:01:52;;;;;;;11.07;6.72;;;22.20;99.90;;;;;;4945252;28;20061;-87
2022/07/21 00:04:23;;;;;;;13.55;6.88;;;22.20;99.90;;;;;;4948536;28;20053;-85
2022/07/21 00:06:49;;;;;;;11.90;6.93;;;22.20;99.90;;;;;;4943239;28;20046;-85
2022/07/21 00:09:16;;;;;;;10.88;7.43;;;22.20;99.90;;;;;;4982487;28;20042;-87
2022/07/21 00:11:41;;;;;;;11.15;6.30;;;22.20;99.90;;;;;;4969025;28;20077;-85
2022/07/21 00:14:09;;;;;;;10.25;6.82;;;22.10;99.90;;;;;;4941115;28;20129;-86
2022/07/21 00:16:36;;;;;;;8.07;6.47;;;22.10;99.90;;;;;;4962668;28;20049;-85
2022/07/21 00:19:04;;;;;;;9.20;5.57;;;21.90;99.90;;;;;;4953906;28;20058;-85
2022/07/21 00:21:30;;;;;;;9.15;5.53;;;22.20;99.90;;;;;;4953562;28;20133;-85
2022/07/21 00:23:56;;;;;;;7.70;5.72;;;22.20;99.90;;;;;;4956165;28;20402;-86
2022/07/21 00:26:22;;;;;;;9.43;5.32;;;22.10;99.90;;;;;;4947579;28;20062;-85
2022/07/21 00:28:49;;;;;;;8.43;5.35;;;22.10;99.90;;;;;;4947562;28;20054;-86
2022/07/21 00:31:15;;;;;;;7.18;5.30;;;22.10;99.90;;;;;;4968335;28;20046;-85
2022/07/21 00:33:41;;;;;;;9.05;5.63;;;22.10;99.90;;;;;;4956440;28;20067;-86
2022/07/21 00:36:07;;;;;;;7.93;5.22;;;22.10;99.90;;;;;;4937735;28;20057;-85
2022/07/21 00:38:33;;;;;;;7.72;5.22;;;22.00;99.90;;;;;;4947598;28;20042;-85
2022/07/21 00:40:59;;;;;;;7.95;5.72;;;22.00;99.90;;;;;;4951245;28;20065;-86
2022/07/21 00:43:25;;;;;;;8.60;5.97;;;22.00;99.90;;;;;;4954843;28;20042;-86
2022/07/21 00:45:55;;;;;;;7.30;5.68;;;21.90;99.90;;;;;;4952382;28;20794;-85
2022/07/21 00:48:23;;;;;;;9.50;6.80;;;21.90;99.90;;;;;;4952101;28;20050;-86
2022/07/21 00:50:49;;;;;;;8.75;6.38;;;21.90;99.90;;;;;;4953484;28;20042;-84
2022/07/21 00:53:15;;;;;;;9.98;7.13;;;21.90;99.90;;;;;;4958275;28;20265;-85
2022/07/21 00:55:47;;;;;;;10.68;7.00;;;21.80;99.90;;;;;;4952681;28;20144;-86
2022/07/21 00:58:13;;;;;;;9.52;6.97;;;21.80;99.90;;;;;;4944785;28;20054;-87
2022/07/21 01:00:39;;;;;;;9.82;7.07;;;21.70;99.90;;;;;;4956079;28;20049;-84
2022/07/21 01:03:08;;;;;;;10.25;6.63;;;21.20;99.90;;;;;;4971147;28;20085;-85
2022/07/21 01:05:36;;;;;;;9.88;6.65;;;21.60;99.90;;;;;;4964775;28;20054;-85
2022/07/21 01:08:05;;;;;;;9.23;5.78;;;21.60;99.90;;;;;;4951638;28;20042;-85
2022/07/21 01:10:32;;;;;;;9.25;5.80;;;21.50;99.90;;;;;;4969933;28;20100;-85
2022/07/21 01:12:59;;;;;;;10.27;5.82;;;21.50;99.90;;;;;;4952615;28;20049;-87
2022/07/21 01:15:25;;;;;;;7.82;5.57;;;21.50;99.90;;;;;;4951825;28;20079;-86
2022/07/21 01:17:52;;;;;;;9.75;5.55;;;21.40;99.90;;;;;;4969743;28;20042;-86
2022/07/21 01:20:22;;;;;;;10.32;6.03;;;21.40;99.90;;;;;;4948310;28;20047;-85
2022/07/21 01:22:51;;;;;;;9.68;5.93;;;21.00;99.90;;;;;;4950808;28;20054;-85
2022/07/21 01:25:19;;;;;;;9.90;6.07;;;21.40;99.90;;;;;;4964938;28;20042;-85
2022/07/21 01:27:45;;;;;;;8.27;5.68;;;21.40;99.90;;;;;;4953126;28;20056;-85
2022/07/21 01:30:12;;;;;;;9.18;5.50;;;21.40;99.90;;;;;;4952605;28;20081;-85
2022/07/21 01:32:39;;;;;;;7.88;5.50;;;21.40;99.90;;;;;;4952714;28;20050;-85
2022/07/21 01:35:11;;;;;;;7.95;5.75;;;20.90;99.90;;;;;;4950464;28;20413;-84
2022/07/21 01:37:39;;;;;;;8.85;5.93;;;21.40;99.90;;;;;;4952959;28;20771;-86
2022/07/21 01:42:52;;;;;;;9.05;5.70;;;21.40;99.90;;;;;;4971562;28;20061;-85
2022/07/21 01:45:19;;;;;;;9.80;5.60;;;21.40;99.90;;;;;;4945442;28;20050;-85
2022/07/21 01:47:45;;;;;;;7.82;5.22;;;21.40;99.90;;;;;;4955878;28;20082;-87
2022/07/21 01:50:11;;;;;;;8.30;4.90;;;21.40;99.90;;;;;;4935634;28;20082;-86
2022/07/21 01:52:36;;;;;;;8.10;5.40;;;21.50;99.90;;;;;;4945935;28;20049;-85
2022/07/21 01:55:03;;;;;;;7.53;5.32;;;21.40;99.90;;;;;;4950022;28;20475;-86
2022/07/21 01:57:28;;;;;;;8.02;5.57;;;21.40;99.90;;;;;;4928732;28;20571;-85
2022/07/21 01:59:54;;;;;;;11.93;5.93;;;21.40;99.90;;;;;;4961840;28;20125;-86
2022/07/21 02:02:21;;;;;;;7.82;5.40;;;21.50;99.90;;;;;;4950588;28;20072;-86
2022/07/21 02:04:50;;;;;;;7.82;5.40;;;21.50;99.90;;;;;;4953341;28;20413;-86
2022/07/21 02:07:16;;;;;;;10.63;5.65;;;21.40;99.90;;;;;;4956056;28;20076;-85
2022/07/21 02:09:42;;;;;;;8.20;5.53;;;21.50;99.90;;;;;;4944865;28;20547;-86
2022/07/21 02:12:08;;;;;;;7.20;5.10;;;21.50;99.90;;;;;;4953271;28;20109;-86
2022/07/21 02:14:37;;;;;;;6.43;5.30;;;21.40;99.90;;;;;;4944391;28;20128;-86
2022/07/21 02:17:06;;;;;;;9.63;6.65;;;21.50;99.90;;;;;;4952408;28;20206;-86
2022/07/21 02:19:34;;;;;;;10.73;6.30;;;21.60;99.90;;;;;;4971185;28;20091;-85
2022/07/21 02:22:00;;;;;;;12.55;6.88;;;21.50;99.90;;;;;;4956991;28;20177;-85
2022/07/21 02:24:26;;;;;;;9.70;6.53;;;21.40;99.90;;;;;;4954397;28;20100;-87
2022/07/21 02:26:52;;;;;;;12.98;6.53;;;21.30;99.90;;;;;;4955116;28;21453;-85
2022/07/21 02:29:18;;;;;;;12.30;6.85;;;21.40;99.90;;;;;;4948364;28;20069;-84
2022/07/21 02:31:44;;;;;;;8.80;6.60;;;21.40;99.90;;;;;;4954143;28;20046;-84
2022/07/21 02:34:09;;;;;;;11.00;6.93;;;21.40;99.90;;;;;;4951941;28;20153;-84
2022/07/21 02:36:35;;;;;;;9.90;6.60;;;21.30;99.90;;;;;;4953895;28;20137;-84
2022/07/21 02:39:01;;;;;;;13.02;7.78;;;21.30;99.90;;;;;;4958063;28;20428;-85
2022/07/21 02:41:27;;;;;;;10.63;8.27;;;21.30;99.90;;;;;;4950980;28;20061;-85
2022/07/21 02:43:53;;;;;;;12.30;8.35;;;21.20;99.90;;;;;;4954360;28;20058;-85
2022/07/21 02:46:18;;;;;;;14.90;10.65;;;21.10;99.90;;;;;;4929922;28;20049;-85
2022/07/21 02:48:44;;;;;;;10.95;9.63;;;21.10;99.90;;;;;;4944235;28;20481;-86
2022/07/21 02:51:10;;;;;;;13.55;10.70;;;21.00;99.90;;;;;;4953457;28;20138;-87
2022/07/21 02:53:35;;;;;;;13.30;10.63;;;21.00;99.90;;;;;;4947348;28;20571;-86
2022/07/21 02:56:01;;;;;;;12.45;11.00;;;20.90;99.90;;;;;;4963226;28;20671;-85
2022/07/21 02:58:29;;;;;;;16.17;12.10;;;20.90;99.90;;;;;;4944816;28;20068;-84
2022/07/21 03:00:57;;;;;;;13.98;12.00;;;20.90;99.90;;;;;;4953643;28;20069;-85
2022/07/21 03:03:27;;;;;;;11.57;10.10;;;20.90;99.90;;;;;;4947171;28;20050;-85
2022/07/21 03:05:53;;;;;;;15.68;13.23;;;20.90;99.90;;;;;;4964499;28;20847;-85
2022/07/21 03:08:20;;;;;;;12.30;10.43;;;20.90;99.90;;;;;;4952363;28;20523;-84
2022/07/21 03:10:46;;;;;;;14.13;12.57;;;20.90;99.90;;;;;;4947914;28;20046;-84
2022/07/21 03:13:12;;;;;;;14.48;12.68;;;20.90;99.90;;;;;;4952450;28;20086;-84
2022/07/21 03:15:38;;;;;;;14.27;12.82;;;20.90;99.90;;;;;;4952961;28;20531;-85
2022/07/21 03:18:04;;;;;;;17.33;13.30;;;20.80;99.90;;;;;;4953362;28;20054;-85
2022/07/21 03:20:32;;;;;;;14.40;12.90;;;20.80;99.90;;;;;;4950503;28;20057;-85
2022/07/21 03:22:58;;;;;;;14.27;12.63;;;20.80;99.90;;;;;;4948379;28;20174;-84
2022/07/21 03:25:24;;;;;;;18.00;13.02;;;20.80;99.90;;;;;;4944339;28;20067;-85
2022/07/21 03:27:51;;;;;;;13.38;11.93;;;20.80;99.90;;;;;;4946527;28;20054;-84
2022/07/21 03:30:18;;;;;;;12.73;9.52;;;20.80;99.90;;;;;;4952423;28;20082;-84
2022/07/21 03:32:44;;;;;;;12.25;8.82;;;20.70;99.90;;;;;;4952382;28;20074;-84
2022/07/21 03:35:11;;;;;;;11.65;7.93;;;20.70;99.90;;;;;;4944150;28;20056;-84
2022/07/21 03:38:00;;;;;;;12.35;7.90;;;20.70;99.90;;;;;;4953372;28;20092;-84
2022/07/21 03:40:29;;;;;;;10.43;7.00;;;20.60;99.90;;;;;;4950765;28;20137;-84
2022/07/21 03:42:56;;;;;;;8.95;6.18;;;20.50;99.90;;;;;;4947714;28;20046;-84
2022/07/21 03:45:23;;;;;;;8.57;5.72;;;20.40;99.90;;;;;;4945016;28;20065;-84
2022/07/21 03:47:49;;;;;;;7.68;5.90;;;20.40;99.90;;;;;;4968058;28;21314;-84
2022/07/21 03:50:20;;;;;;;10.25;5.60;;;20.40;99.90;;;;;;4951617;28;20398;-84
2022/07/21 03:52:48;;;;;;;9.07;5.72;;;20.30;99.90;;;;;;4963253;28;20046;-85
2022/07/21 03:55:17;;;;;;;7.88;5.00;;;20.30;99.90;;;;;;4965305;28;20067;-85
2022/07/21 03:57:52;;;;;;;10.15;5.43;;;20.30;99.90;;;;;;4956041;28;20050;-84
2022/07/21 04:00:25;;;;;;;7.00;5.43;;;20.30;99.90;;;;;;4951895;28;20050;-86
2022/07/21 04:02:51;;;;;;;9.77;5.30;;;20.30;99.90;;;;;;4968487;28;20147;-85
2022/07/21 04:05:18;;;;;;;9.77;5.18;;;20.30;99.90;;;;;;4967781;28;20046;-84
2022/07/21 04:07:46;;;;;;;8.65;5.22;;;20.20;99.90;;;;;;4967598;28;20086;-85
2022/07/21 04:10:13;;;;;;;8.52;5.57;;;20.20;99.90;;;;;;4948746;28;20050;-85
2022/07/21 04:12:39;;;;;;;9.43;5.18;;;20.20;99.90;;;;;;4942829;28;20077;-84
2022/07/21 04:15:07;;;;;;;8.63;5.07;;;20.20;99.90;;;;;;4951251;28;20120;-84
2022/07/21 04:17:33;;;;;;;9.07;5.00;;;19.80;99.90;;;;;;4946402;28;20053;-84
2022/07/21 04:19:59;;;;;;;10.48;5.82;;;20.20;99.90;;;;;;4950917;28;20046;-85
2022/07/21 04:22:25;;;;;;;9.60;5.82;;;20.20;99.90;;;;;;4966558;28;20049;-84
2022/07/21 04:24:51;;;;;;;9.95;5.68;;;20.20;99.90;;;;;;4952282;28;20085;-85
2022/07/21 04:27:19;;;;;;;11.38;6.38;;;20.20;99.90;;;;;;4949649;28;20050;-85
2022/07/21 04:29:45;;;;;;;10.13;6.25;;;20.20;99.90;;;;;;4983044;28;20513;-84
2022/07/21 04:32:11;;;;;;;10.15;6.35;;;20.20;99.90;;;;;;4968683;28;20085;-84
2022/07/21 04:34:37;;;;;;;7.43;6.22;;;20.20;99.90;;;;;;4970747;28;20066;-84
2022/07/21 04:37:02;;;;;;;7.60;5.50;;;20.20;99.90;;;;;;4957901;28;20077;-85
2022/07/21 04:39:28;;;;;;;9.70;5.22;;;20.20;99.90;;;;;;4950430;28;20137;-84
2022/07/21 04:41:55;;;;;;;8.93;5.18;;;20.20;99.90;;;;;;4952533;28;20046;-84
2022/07/21 04:44:21;;;;;;;6.13;4.10;;;20.10;99.90;;;;;;4952605;28;20429;-84
2022/07/21 04:46:46;;;;;;;8.18;4.78;;;20.10;99.90;;;;;;4952055;28;20042;-84
2022/07/21 04:49:12;;;;;;;7.50;4.28;;;20.10;99.90;;;;;;4967531;28;20984;-84
2022/07/21 04:51:39;;;;;;;6.75;3.85;;;20.10;99.90;;;;;;4940326;28;20046;-84
2022/07/21 04:54:06;;;;;;;8.43;4.53;;;20.10;99.90;;;;;;4942286;28;20062;-84
2022/07/21 04:56:34;;;;;;;7.78;4.20;;;20.20;99.90;;;;;;4942367;28;20867;-84
2022/07/21 04:59:03;;;;;;;9.32;4.47;;;20.20;99.90;;;;;;4935089;28;20055;-83
2022/07/21 05:01:29;;;;;;;7.60;5.43;;;20.20;99.90;;;;;;4968066;28;20049;-84
2022/07/21 05:03:54;;;;;;;9.90;6.18;;;20.20;99.90;;;;;;4940786;28;20038;-83
2022/07/21 05:06:20;;;;;;;7.57;4.88;;;20.20;99.90;;;;;;4958818;28;20058;-85
2022/07/21 05:08:47;;;;;;;7.30;5.35;;;20.20;99.90;;;;;;4945209;28;20054;-85
2022/07/21 05:11:13;;;;;;;9.32;5.68;;;20.30;99.90;;;;;;4950261;28;20042;-85
2022/07/21 05:13:41;;;;;;;8.48;5.35;;;20.30;99.90;;;;;;4925692;28;20400;-84
2022/07/21 05:16:07;;;;;;;7.05;4.97;;;20.30;99.90;;;;;;4948149;28;20141;-85
2022/07/21 05:18:33;;;;;;;7.80;4.97;;;20.30;99.90;;;;;;4920231;28;20046;-84
2022/07/21 05:20:59;;;;;;;7.93;5.25;;;20.30;99.90;;;;;;4966353;28;20041;-84
2022/07/21 05:23:25;;;;;;;8.77;5.28;;;20.30;99.90;;;;;;4962434;28;20046;-84
2022/07/21 05:25:50;;;;;;;6.93;5.40;;;20.30;99.90;;;;;;4948828;28;20053;-83
2022/07/21 05:28:16;;;;;;;8.65;5.68;;;20.30;99.90;;;;;;4969197;28;20073;-84
2022/07/21 05:30:42;;;;;;;8.60;5.60;;;20.30;99.90;;;;;;4935953;28;20136;-84
2022/07/21 05:33:10;;;;;;;9.18;5.70;;;20.30;99.90;;;;;;4944509;28;20133;-84
2022/07/21 05:35:36;;;;;;;10.23;6.07;;;20.30;99.90;;;;;;4930001;28;20176;-85
2022/07/21 05:38:02;;;;;;;10.13;6.28;;;20.40;99.90;;;;;;4953822;28;20050;-84
2022/07/21 05:40:28;;;;;;;8.15;6.05;;;20.40;99.90;;;;;;4970209;28;20616;-84
2022/07/21 05:42:54;;;;;;;10.23;7.47;;;20.40;99.90;;;;;;4971879;28;20125;-85
2022/07/21 05:45:20;;;;;;;9.85;7.00;;;20.40;99.90;;;;;;4956371;28;20046;-85
2022/07/21 05:47:46;;;;;;;11.60;7.65;;;20.40;99.90;;;;;;4947446;28;20165;-84
2022/07/21 05:50:12;;;;;;;11.73;8.32;;;20.40;99.90;;;;;;4965619;28;20045;-84
2022/07/21 05:52:38;;;;;;;10.18;7.18;;;20.10;99.90;;;;;;4935820;28;20046;-84
2022/07/21 05:55:05;;;;;;;10.73;7.80;;;20.50;99.90;;;;;;4970540;28;20073;-84
2022/07/21 05:57:31;;;;;;;12.18;7.70;;;20.50;99.90;;;;;;4969883;28;20061;-83
2022/07/21 05:59:57;;;;;;;11.25;7.68;;;20.50;99.90;;;;;;4970544;28;20042;-84
2022/07/21 06:02:26;;;;;;;12.88;7.43;;;20.50;99.90;;;;;;4942161;28;20073;-84
2022/07/21 06:04:54;;;;;;;11.25;7.60;;;20.60;99.90;;;;;;4950063;28;20405;-83
2022/07/21 06:07:28;;;;;;;13.48;8.50;;;20.80;99.90;;;;;;4966099;28;20051;-89
2022/07/21 06:09:59;;;;;;;11.90;8.57;;;20.70;99.90;;;;;;4960914;28;20042;-86
2022/07/21 06:12:38;;;;;;;;;;;;;;;;;;;;;
2022/07/21 06:15:23;;;;;;;;;;;;;;;;;;;;;
2022/07/21 06:21:07;;;;;;;11.68;8.48;;;20.90;99.90;;;;;;4943159;28;20161;-89
2022/07/21 06:24:26;;;;;;;;;;;;;;;;;;;;;
2022/07/21 06:27:01;;;;;;;11.23;8.85;;;20.90;99.90;;;;;;4976753;28;20042;-89
2022/07/21 06:30:02;;;;;;;;;;;;;;;;;;;;;
2022/07/21 06:32:44;;;;;;;;;;;;;;;;;;;;;
2022/07/21 06:35:30;;;;;;;12.15;9.60;;;21.10;99.90;;;;;;4970925;28;20232;-88
2022/07/21 06:38:18;;;;;;;13.43;9.45;;;21.20;99.90;;;;;;4971731;28;20042;-92
2022/07/21 06:40:44;;;;;;;17.08;12.20;;;21.20;99.90;;;;;;4942090;28;20035;-88
2022/07/21 06:43:13;;;;;;;13.60;11.30;;;21.30;99.90;;;;;;4971384;28;20049;-88
2022/07/21 06:45:39;;;;;;;14.88;11.38;;;21.40;99.90;;;;;;4968963;28;21096;-85
2022/07/21 06:48:07;;;;;;;13.95;11.38;;;21.40;99.90;;;;;;4966623;28;20054;-85
2022/07/21 06:50:33;;;;;;;13.13;11.20;;;21.40;99.90;;;;;;4967282;28;20416;-85
2022/07/21 06:53:02;;;;;;;14.43;12.07;;;21.40;99.90;;;;;;4937866;28;20042;-83
2022/07/21 06:55:27;;;;;;;13.55;11.70;;;21.40;99.90;;;;;;4972565;28;20058;-84
2022/07/21 06:57:54;;;;;;;14.30;12.07;;;21.40;99.90;;;;;;4939968;28;20057;-84
2022/07/21 07:00:20;;;;;;;16.75;13.43;;;21.40;99.90;;;;;;4934634;28;20093;-83
2022/07/21 07:02:46;;;;;;;17.85;13.52;;;21.40;99.90;;;;;;4948954;28;20046;-84
2022/07/21 07:05:15;;;;;;;15.60;12.13;;;21.30;99.90;;;;;;4964883;28;20057;-85
2022/07/21 07:07:41;;;;;;;15.32;11.52;;;21.10;99.90;;;;;;4972574;28;20054;-85
2022/07/21 07:10:07;;;;;;;16.35;10.85;;;21.10;99.90;;;;;;4963534;28;20053;-83
2022/07/21 07:12:33;;;;;;;15.32;11.02;;;20.30;99.90;;;;;;4948175;28;20073;-83
2022/07/21 07:14:58;;;;;;;16.92;11.55;;;21.10;99.90;;;;;;4970869;28;20573;-84
2022/07/21 07:17:24;;;;;;;16.35;11.23;;;21.10;99.90;;;;;;4953232;28;20050;-84
2022/07/21 07:19:50;;;;;;;13.73;11.57;;;21.10;99.90;;;;;;4963499;28;20159;-85
2022/07/21 07:22:16;;;;;;;15.85;11.32;;;20.40;99.90;;;;;;4949526;28;20078;-85
2022/07/21 07:24:42;;;;;;;13.50;11.13;;;20.90;99.90;;;;;;4945091;28;20607;-84
2022/07/21 07:27:11;;;;;;;18.52;10.57;;;20.90;99.90;;;;;;4946218;28;20141;-84
2022/07/21 07:29:36;;;;;;;13.98;10.95;;;20.90;99.90;;;;;;4949850;28;20173;-85
2022/07/21 07:32:02;;;;;;;11.93;9.88;;;20.80;99.90;;;;;;4934873;28;20050;-85
2022/07/21 07:34:28;;;;;;;14.90;11.43;;;20.80;99.90;;;;;;4958608;28;20038;-85
2022/07/21 07:36:53;;;;;;;12.00;10.65;;;20.80;99.90;;;;;;4953092;28;20108;-83
2022/07/21 07:39:19;;;;;;;13.27;10.65;;;20.80;99.90;;;;;;4969750;28;20081;-83
2022/07/21 07:41:45;;;;;;;13.30;11.60;;;20.80;99.90;;;;;;4937460;28;20057;-85
2022/07/21 07:44:11;;;;;;;11.80;9.95;;;20.80;99.90;;;;;;4970700;28;20054;-84
2022/07/21 07:46:37;;;;;;;14.98;10.20;;;20.70;99.90;;;;;;4946670;28;20070;-84
2022/07/21 07:49:03;;;;;;;14.05;10.25;;;20.70;99.90;;;;;;4944938;28;20461;-85
2022/07/21 07:51:28;;;;;;;12.23;10.48;;;20.70;99.90;;;;;;4953102;28;20599;-85
2022/07/21 07:53:54;;;;;;;11.90;10.18;;;20.70;99.90;;;;;;4968736;28;20054;-86
2022/07/21 07:56:20;;;;;;;11.40;10.20;;;20.70;99.90;;;;;;4984199;28;20133;-84
2022/07/21 07:58:46;;;;;;;12.93;10.57;;;20.60;99.90;;;;;;4942739;28;20077;-84
2022/07/21 08:01:12;;;;;;;11.75;9.90;;;20.60;99.90;;;;;;4968143;28;20674;-85
2022/07/21 08:03:37;;;;;;;11.32;9.90;;;20.60;99.90;;;;;;4945024;28;20042;-84
2022/07/21 08:06:05;;;;;;;11.70;9.88;;;20.60;99.90;;;;;;4927180;28;20057;-85
2022/07/21 08:08:31;;;;;;;12.57;9.77;;;20.60;99.90;;;;;;4946336;28;20050;-85
2022/07/21 08:10:57;;;;;;;12.82;9.85;;;20.60;99.90;;;;;;4969388;28;20089;-86
2022/07/21 08:13:24;;;;;;;13.18;9.18;;;20.50;99.90;;;;;;4945277;28;20072;-85
2022/07/21 08:15:53;;;;;;;13.20;9.57;;;20.60;99.90;;;;;;4953754;28;20042;-84
2022/07/21 08:18:19;;;;;;;9.82;8.82;;;20.50;99.90;;;;;;4932576;28;20096;-83
2022/07/21 08:20:46;;;;;;;12.10;9.25;;;20.50;99.90;;;;;;4956652;28;20042;-82
2022/07/21 08:23:12;;;;;;;11.25;10.23;;;20.50;99.90;;;;;;4973844;28;20563;-89
2022/07/21 08:25:39;;;;;;;12.05;10.30;;;20.50;99.90;;;;;;4949277;28;20126;-91
2022/07/21 08:28:05;;;;;;;10.90;9.80;;;20.50;99.90;;;;;;4964002;28;20132;-90
2022/07/21 08:30:31;;;;;;;12.55;10.63;;;20.50;99.90;;;;;;4958116;28;20085;-93
2022/07/21 08:33:01;;;;;;;11.93;10.70;;;20.50;99.90;;;;;;4977099;28;20125;-91
2022/07/21 08:35:27;;;;;;;12.60;10.57;;;20.50;99.90;;;;;;4976113;28;20058;-90
2022/07/21 08:38:02;;;;;;;10.60;9.50;;;20.40;99.90;;;;;;4967027;28;20057;-90
2022/07/21 08:40:30;;;;;;;10.55;9.38;;;20.40;99.90;;;;;;4960783;28;20689;-92
2022/07/21 08:42:58;;;;;;;12.90;9.43;;;20.40;99.90;;;;;;4978557;28;20086;-89
2022/07/21 08:45:29;;;;;;;11.63;9.63;;;20.40;99.90;;;;;;4976713;28;20072;-88
2022/07/21 08:48:19;;;;;;;10.43;8.68;;;20.30;99.90;;;;;;4972370;28;20050;-86
2022/07/21 08:51:20;;;;;;;;;;;;;;;;;;;;;
2022/07/21 08:53:59;;;;;;;14.32;9.48;;;20.10;99.90;;;;;;4975367;28;20050;-88
2022/07/21 08:56:36;;;;;;;13.40;9.07;;;20.00;99.90;;;;;;4958674;28;20046;-88
2022/07/21 08:59:07;;;;;;;9.93;8.88;;;19.90;99.90;;;;;;4963252;28;20053;-87
2022/07/21 09:01:45;;;;;;;;;;;;;;;;;;;;;
2022/07/21 09:04:28;;;;;;;11.75;9.30;;;19.80;99.90;;;;;;4975294;28;20106;-87
2022/07/21 09:07:07;;;;;;;11.68;8.18;;;20.00;99.90;;;;;;4976997;28;20392;-88
2022/07/21 09:09:56;;;;;;;11.38;8.38;;;19.70;99.90;;;;;;4958826;28;20054;-88
2022/07/21 09:12:22;;;;;;;12.13;8.80;;;19.60;99.90;;;;;;4969577;28;20513;-86
2022/07/21 09:14:50;;;;;;;12.60;9.32;;;19.50;99.90;;;;;;4952653;28;20039;-86
2022/07/21 09:17:18;;;;;;;11.75;8.55;;;19.50;99.90;;;;;;4972607;28;20117;-87
2022/07/21 09:19:57;;;;;;;10.38;9.25;;;19.50;99.90;;;;;;4964536;28;20161;-85
2022/07/21 09:22:27;;;;;;;11.02;8.50;;;19.50;99.90;;;;;;4963482;28;20069;-88
2022/07/21 09:25:05;;;;;;;;;;;;;;;;;;;;;
2022/07/21 09:27:32;;;;;;;8.18;7.40;;;19.50;99.90;;;;;;4978326;28;20082;-89
2022/07/21 09:30:10;;;;;;;9.82;7.88;;;19.50;99.90;;;;;;4965297;28;20054;-90
2022/07/21 09:32:45;;;;;;;9.13;7.63;;;19.50;99.90;;;;;;4968061;28;20085;-90
2022/07/21 09:35:15;;;;;;;9.20;7.75;;;19.50;99.90;;;;;;4959666;28;20042;-88
2022/07/21 09:37:44;;;;;;;8.93;7.30;;;19.50;99.90;;;;;;4977258;28;20100;-89
2022/07/21 09:40:22;;;;;;;9.38;8.20;;;19.50;99.90;;;;;;4951732;28;20054;-87
2022/07/21 09:42:51;;;;;;;9.60;7.72;;;19.60;99.90;;;;;;4977489;28;20050;-91
2022/07/21 09:45:18;;;;;;;9.32;7.90;;;19.60;99.90;;;;;;4976031;28;20050;-90
2022/07/21 09:47:47;;;;;;;8.25;7.45;;;19.60;99.90;;;;;;4973592;28;20058;-91
2022/07/21 09:50:17;;;;;;;8.98;7.10;;;19.60;99.90;;;;;;4959637;28;20051;-93
2022/07/21 09:52:45;;;;;;;10.32;7.50;;;19.20;99.90;;;;;;4955892;28;20054;-89
2022/07/21 09:55:17;;;;;;;8.45;7.18;;;19.60;99.90;;;;;;4957457;28;20062;-86
2022/07/21 09:57:44;;;;;;;8.57;7.70;;;19.10;99.90;;;;;;4956088;28;20066;-86
2022/07/21 10:00:16;;;;;;;8.40;7.50;;;19.70;99.90;;;;;;4955788;28;20042;-87
2022/07/21 10:02:46;;;;;;;10.68;7.65;;;19.70;99.90;;;;;;4948057;28;20060;-86
2022/07/21 10:05:14;;;;;;;8.85;7.50;;;19.70;99.90;;;;;;4948456;28;20149;-86
2022/07/21 10:07:45;;;;;;;9.00;8.10;;;19.80;99.90;;;;;;4954791;28;20042;-85
2022/07/21 10:10:12;;;;;;;9.90;7.20;;;19.80;99.90;;;;;;4958479;28;20050;-87
2022/07/21 10:12:39;;;;;;;8.55;7.65;;;19.90;99.90;;;;;;4958850;28;20057;-85
2022/07/21 10:15:05;;;;;;;8.85;7.88;;;19.90;99.90;;;;;;4943940;28;20563;-88
2022/07/21 10:17:31;;;;;;;12.00;8.40;;;19.90;99.90;;;;;;4952909;28;20092;-86
2022/07/21 10:20:21;;;;;;;8.13;6.95;;;20.00;99.90;;;;;;4952095;28;20488;-86
2022/07/21 10:23:05;;;;;;;7.60;6.80;;;20.10;99.90;;;;;;4953559;28;20140;-88
2022/07/21 10:25:31;;;;;;;9.00;7.22;;;20.10;99.90;;;;;;4981823;28;20078;-91
2022/07/21 10:28:20;;;;;;;8.98;7.05;;;20.10;99.90;;;;;;4952522;28;20405;-93
2022/07/21 10:30:49;;;;;;;8.68;5.80;;;20.10;99.90;;;;;;4977544;28;20074;-93
2022/07/21 10:33:28;;;;;;;9.90;6.72;;;20.10;99.90;;;;;;4965560;28;20078;-89
2022/07/21 10:35:59;;;;;;;8.98;6.85;;;20.00;99.90;;;;;;4950601;28;20513;-90
2022/07/21 10:38:28;;;;;;;7.70;6.25;;;20.00;99.90;;;;;;4978596;28;20069;-92
2022/07/21 10:40:55;;;;;;;7.78;5.60;;;20.00;99.90;;;;;;4973159;28;20050;-94
2022/07/21 10:43:24;;;;;;;7.28;5.88;;;20.10;99.90;;;;;;4954883;28;21765;-89
2022/07/21 10:45:50;;;;;;;7.18;5.72;;;19.50;99.90;;;;;;4951929;28;20050;-90
2022/07/21 10:48:41;;;;;;;8.50;6.40;;;20.10;99.90;;;;;;4955350;28;20057;-91
2022/07/21 10:51:15;;;;;;;7.65;6.45;;;20.10;99.90;;;;;;4971890;28;20485;-88
2022/07/21 10:53:43;;;;;;;9.07;7.25;;;20.10;99.90;;;;;;4989136;28;20054;-85
2022/07/21 10:56:33;;;;;;;7.75;6.25;;;20.00;99.90;;;;;;5013888;28;20488;-92
2022/07/21 10:58:59;;;;;;;9.38;6.90;;;20.20;99.90;;;;;;5012845;28;20058;-92
2022/07/21 11:01:25;;;;;;;8.93;7.65;;;20.20;99.90;;;;;;4996375;28;20111;-92
2022/07/21 11:04:09;;;;;;;7.13;6.43;;;20.30;99.90;;;;;;5038637;28;20085;-91
2022/07/21 11:06:40;;;;;;;8.90;7.13;;;20.40;99.90;;;;;;4998138;28;20414;-92
2022/07/21 11:09:16;;;;;;;7.30;6.03;;;20.40;99.90;;;;;;4995043;28;20046;-93
2022/07/21 11:12:03;;;;;;;10.00;7.03;;;20.40;99.90;;;;;;5012787;28;20080;-89
2022/07/21 11:14:44;;;;;;;7.75;5.90;;;20.50;99.90;;;;;;5047520;28;20046;-92
2022/07/21 11:17:31;;;;;;;8.20;6.10;;;20.50;99.90;;;;;;5010866;28;20053;-92
2022/07/21 11:19:58;;;;;;;7.57;5.85;;;20.60;99.90;;;;;;4995603;28;20106;-91
2022/07/21 11:22:30;;;;;;;6.03;5.32;;;20.60;99.90;;;;;;4980828;28;20132;-92
2022/07/21 11:25:14;;;;;;;8.15;5.90;;;20.70;99.90;;;;;;4965240;28;20050;-93
2022/07/21 11:27:43;;;;;;;8.65;6.82;;;20.70;99.90;;;;;;4991461;28;20291;-93
2022/07/21 11:30:10;;;;;;;6.90;5.40;;;20.70;99.90;;;;;;5021405;28;20041;-92
2022/07/21 11:32:36;;;;;;;7.47;5.50;;;20.70;99.90;;;;;;5005327;28;20084;-89
2022/07/21 11:35:05;;;;;;;6.40;4.97;;;20.70;99.90;;;;;;5004986;28;20044;-92
2022/07/21 11:37:40;;;;;;;7.18;5.18;;;20.70;99.90;;;;;;5007677;28;20054;-92
2022/07/21 11:40:13;;;;;;;7.80;5.70;;;20.70;99.90;;;;;;5021907;28;20076;-91
2022/07/21 11:42:40;;;;;;;6.32;5.15;;;20.50;99.90;;;;;;5020613;28;20316;-89
2022/07/21 11:45:07;;;;;;;7.55;5.95;;;20.70;99.90;;;;;;4987508;28;20176;-93
2022/07/21 11:47:33;;;;;;;5.70;4.97;;;20.70;99.90;;;;;;5006449;28;20046;-94
2022/07/21 11:50:11;;;;;;;7.18;5.63;;;20.70;99.90;;;;;;4990092;28;20065;-93
2022/07/21 11:52:39;;;;;;;5.45;4.68;;;20.60;99.90;;;;;;5036502;28;20084;-91
2022/07/21 11:55:11;;;;;;;6.68;4.68;;;20.60;99.90;;;;;;5023134;28;20076;-92
2022/07/21 11:57:46;;;;;;;7.70;5.80;;;20.60;99.90;;;;;;4995995;28;20053;-91
2022/07/21 12:00:13;;;;;;;5.85;4.88;;;20.70;99.90;;;;;;4987950;28;20058;-90
2022/07/21 12:02:39;;;;;;;6.97;5.38;;;20.70;99.90;;;;;;5019926;28;20054;-92
2022/07/21 12:05:08;;;;;;;7.55;4.88;;;20.70;99.90;;;;;;4990776;28;20054;-93
2022/07/21 12:07:41;;;;;;;8.52;5.93;;;20.70;99.90;;;;;;4981717;28;20058;-88
2022/07/21 12:10:08;;;;;;;7.30;5.50;;;20.70;99.90;;;;;;4996310;28;20053;-91
2022/07/21 12:12:42;;;;;;;6.47;5.75;;;20.70;99.90;;;;;;4980447;28;20045;-93
2022/07/21 12:15:12;;;;;;;6.68;5.43;;;20.80;99.90;;;;;;4976213;28;20093;-91
2022/07/21 12:17:41;;;;;;;7.57;5.72;;;20.80;99.90;;;;;;4991962;28;20073;-90
2022/07/21 12:20:07;;;;;;;6.60;5.10;;;20.80;99.90;;;;;;4992982;28;20367;-92
2022/07/21 12:22:38;;;;;;;6.00;5.35;;;20.90;99.90;;;;;;4975837;28;20046;-94
2022/07/21 12:25:07;;;;;;;6.43;5.50;;;20.90;99.90;;;;;;4994538;28;20125;-87
2022/07/21 12:27:35;;;;;;;6.78;4.43;;;20.90;99.90;;;;;;4975214;28;20046;-93
2022/07/21 12:30:01;;;;;;;5.60;4.85;;;21.00;99.90;;;;;;4994205;28;20110;-93
2022/07/21 12:32:47;;;;;;;6.65;5.40;;;21.10;99.90;;;;;;4959789;28;20140;-89
2022/07/21 12:35:18;;;;;;;8.57;5.90;;;21.10;99.90;;;;;;4975545;28;20048;-91
2022/07/21 12:37:52;;;;;;;5.30;4.55;;;20.70;99.90;;;;;;4991216;28;20133;-93
2022/07/21 12:40:20;;;;;;;8.00;5.35;;;21.20;99.90;;;;;;4978739;28;20050;-89
2022/07/21 12:42:47;;;;;;;6.88;5.13;;;20.70;99.90;;;;;;4994204;28;20316;-89
2022/07/21 12:45:18;;;;;;;6.82;5.25;;;21.10;99.90;;;;;;4981680;28;20046;-87
2022/07/21 12:48:08;;;;;;;6.18;4.80;;;21.10;99.90;;;;;;5018016;28;20502;-89
2022/07/21 12:50:35;;;;;;;7.00;4.57;;;21.10;99.90;;;;;;4972967;28;20048;-88
2022/07/21 12:53:08;;;;;;;5.95;4.78;;;21.10;99.90;;;;;;5005366;28;20050;-89
2022/07/21 12:55:36;;;;;;;9.40;4.80;;;21.10;99.90;;;;;;4989233;28;20062;-89
2022/07/21 12:58:03;;;;;;;6.65;4.55;;;21.10;99.90;;;;;;5040849;28;20052;-89
2022/07/21 13:00:29;;;;;;;6.40;4.95;;;21.20;99.90;;;;;;5005674;28;20046;-89
2022/07/21 13:02:57;;;;;;;6.60;5.55;;;21.10;99.90;;;;;;4990468;28;20064;-88
2022/07/21 13:05:24;;;;;;;6.85;5.40;;;21.10;99.90;;;;;;4988858;28;20175;-88
2022/07/21 13:07:50;;;;;;;7.28;5.20;;;21.10;99.90;;;;;;5006553;28;20054;-87